Time;durP1;ratioP1;P1;durP2;ratioP2;P2;SDS_P1;SDS_P2;PMS_P1;PMS_P2;Temp;Humidity;BMP_temperature;BMP_pressure;BME280_temperature;BME280_humidity;BME280_pressure;Samples;Min_cycle;Max_cycle;Signal;HPM_P1;HPM_P2
2023/08/30 00:00:35;;;;;;;6.90;4.05;;;;;;;15.05;100.00;100710.13;5073533;28;20071;-47
2023/08/30 00:03:00;;;;;;;4.60;3.80;;;;;;;14.67;100.00;100631.78;5073027;28;20028;-48
2023/08/30 00:05:27;;;;;;;5.97;4.13;;;;;;;14.76;100.00;100641.91;5073039;28;20036;-48
2023/08/30 00:07:53;;;;;;;3.65;3.20;;;;;;;14.75;100.00;100634.88;5071789;28;20032;-49
2023/08/30 00:10:19;;;;;;;5.20;4.18;;;;;;;15.18;100.00;100705.00;5072670;28;20059;-47
2023/08/30 00:12:44;;;;;;;5.18;4.10;;;;;;;14.75;100.00;100623.41;5072664;28;20454;-50
2023/08/30 00:15:10;;;;;;;5.38;3.90;;;;;;;14.76;100.00;100626.00;5071256;28;20098;-49
2023/08/30 00:17:35;;;;;;;6.50;4.53;;;;;;;15.20;100.00;100698.72;5072580;28;20029;-51
2023/08/30 00:20:01;;;;;;;6.72;4.32;;;;;;;15.23;100.00;100713.59;5072449;28;20343;-49
2023/08/30 00:22:27;;;;;;;4.78;4.20;;;;;;;15.26;100.00;100696.66;5072667;28;21479;-50
2023/08/30 00:24:53;;;;;;;4.93;4.47;;;;;;;15.25;100.00;100695.81;5072110;28;20056;-46
2023/08/30 00:27:20;;;;;;;6.55;4.35;;;;;;;14.91;100.00;100621.69;5072584;28;20040;-47
2023/08/30 00:29:45;;;;;;;6.70;4.50;;;;;;;15.16;100.00;100680.38;5071442;28;20154;-46
2023/08/30 00:32:11;;;;;;;6.90;4.70;;;;;;;15.30;100.00;100687.59;5072452;28;20144;-45
2023/08/30 00:34:36;;;;;;;6.90;4.53;;;;;;;14.74;100.00;100588.13;5071081;28;20054;-45
2023/08/30 00:37:02;;;;;;;5.40;4.90;;;;;;;15.32;100.00;100683.06;5054186;28;20086;-48
2023/08/30 00:39:27;;;;;;;5.05;4.55;;;;;;;15.28;100.00;100668.25;5071955;28;20044;-50
2023/08/30 00:41:53;;;;;;;5.43;4.20;;;;;;;15.32;100.00;100683.06;5072271;28;20033;-50
2023/08/30 00:44:18;;;;;;;6.78;5.55;;;;;;;14.88;100.00;100604.16;5072309;28;20043;-50
2023/08/30 00:46:43;;;;;;;5.25;4.35;;;;;;;14.90;100.00;100594.31;5072399;28;20037;-47
2023/08/30 00:49:10;;;;;;;5.57;4.50;;;;;;;15.30;100.00;100669.03;5072333;28;20037;-49
2023/08/30 00:51:35;;;;;;;7.35;5.28;;;;;;;15.33;100.00;100680.34;5071271;28;20068;-49
2023/08/30 00:54:01;;;;;;;5.80;5.10;;;;;;;14.88;100.00;100587.41;5070863;28;20064;-48
2023/08/30 00:56:29;;;;;;;7.80;5.03;;;;;;;15.36;100.00;100666.03;5070048;28;20037;-48
2023/08/30 00:58:55;;;;;;;7.72;5.25;;;;;;;15.12;100.00;100620.50;5070798;28;20035;-45
2023/08/30 01:01:21;;;;;;;7.53;5.35;;;;;;;14.95;100.00;100594.06;5070493;28;20119;-48
2023/08/30 01:03:46;;;;;;;6.43;4.97;;;;;;;15.33;100.00;100659.13;5071730;28;20466;-49
2023/08/30 01:06:13;;;;;;;7.00;5.13;;;;;;;15.32;100.00;100664.53;5070128;28;20036;-48
2023/08/30 01:08:38;;;;;;;6.63;5.15;;;;;;;15.29;100.00;100654.06;5079833;28;20066;-48
2023/08/30 01:11:16;;;;;;;5.60;4.50;;;;;;;15.31;100.00;100663.66;5073947;28;20122;-50
2023/08/30 01:13:46;;;;;;;6.55;5.22;;;;;;;15.28;100.00;100645.25;5091594;28;20122;-49
2023/08/30 01:16:11;;;;;;;7.40;4.55;;;;;;;15.23;100.00;100641.16;5091442;28;20110;-47
2023/08/30 01:18:38;;;;;;;5.22;4.50;;;;;;;15.13;100.00;100643.44;5090403;28;20491;-49
2023/08/30 01:21:04;;;;;;;6.97;5.63;;;;;;;14.67;100.00;100570.84;5090394;28;20066;-48
2023/08/30 01:24:02;;;;;;;8.40;5.40;;;;;;;15.03;100.00;100643.06;5090498;28;20047;-49
2023/08/30 01:27:05;;;;;;;10.40;5.22;;;;;;;14.77;100.00;100601.19;5046343;28;20040;-46
2023/08/30 01:29:31;;;;;;;7.35;5.95;;;;;;;14.59;100.00;100560.66;5073541;28;20035;-45
2023/08/30 01:31:57;;;;;;;7.82;6.03;;;;;;;14.53;100.00;100541.59;5090726;28;20494;-45
2023/08/30 01:34:22;;;;;;;7.43;5.68;;;;;;;14.55;100.00;100547.66;5092143;28;20068;-45
2023/08/30 01:36:48;;;;;;;9.93;6.03;;;;;;;15.01;100.00;100631.69;5073346;28;20039;-46
2023/08/30 01:39:14;;;;;;;7.15;5.10;;;;;;;15.08;100.00;100635.75;5073647;28;20085;-48
2023/08/30 01:41:40;;;;;;;7.80;6.00;;;;;;;15.10;100.00;100623.25;5091520;28;20081;-48
2023/08/30 01:44:05;;;;;;;8.38;6.30;;;;;;;15.17;100.00;100637.91;5090432;28;20040;-45
2023/08/30 01:46:33;;;;;;;9.68;6.15;;;;;;;14.95;100.00;100573.72;5090715;28;20124;-48
2023/08/30 01:49:01;;;;;;;12.15;6.43;;;;;;;14.87;100.00;100552.09;5090653;28;20036;-49
2023/08/30 01:51:26;;;;;;;9.35;6.40;;;;;;;14.84;100.00;100538.13;5090390;28;20480;-48
2023/08/30 01:53:52;;;;;;;9.52;6.43;;;;;;;15.29;100.00;100611.66;5073462;28;20032;-48
2023/08/30 01:56:18;;;;;;;11.65;6.70;;;;;;;15.30;100.00;100616.00;5091580;28;20032;-46
2023/08/30 01:58:43;;;;;;;10.65;7.22;;;;;;;14.86;100.00;100526.50;5091904;28;20486;-49
2023/08/30 02:01:09;;;;;;;9.18;7.15;;;;;;;14.93;100.00;100538.50;5090230;28;20036;-48
2023/08/30 02:03:34;;;;;;;7.57;6.50;;;;;;;15.05;100.00;100539.63;5090302;28;20031;-47
2023/08/30 02:06:08;;;;;;;8.25;7.45;;;;;;;15.44;100.00;100610.81;5091712;28;20417;-49
2023/08/30 02:09:00;;;;;;;12.45;8.05;;;;;;;15.44;100.00;100603.66;5090193;28;20116;-47
2023/08/30 02:11:28;;;;;;;11.85;7.65;;;;;;;15.49;100.00;100601.69;5091263;28;20044;-48
2023/08/30 02:13:54;;;;;;;10.95;6.60;;;;;;;15.54;100.00;100598.75;5090437;28;20086;-48
2023/08/30 02:16:21;;;;;;;8.15;6.45;;;;;;;15.59;100.00;100607.28;5073347;28;20482;-49
2023/08/30 02:18:46;;;;;;;9.88;7.05;;;;;;;15.52;100.00;100582.94;5090235;28;20197;-48
2023/08/30 02:21:12;;;;;;;10.02;6.45;;;;;;;15.11;100.00;100515.44;5090094;28;20483;-48
2023/08/30 02:23:38;;;;;;;9.18;6.32;;;;;;;15.52;100.00;100598.84;5089830;28;20044;-49
2023/08/30 02:26:03;;;;;;;10.80;6.35;;;;;;;15.41;100.00;100571.19;5091656;28;20055;-50
2023/08/30 02:28:29;;;;;;;7.55;5.40;;;;;;;15.47;100.00;100586.78;5090494;28;20032;-48
2023/08/30 02:30:55;;;;;;;7.57;6.40;;;;;;;15.50;100.00;100591.94;5091402;28;20044;-51
2023/08/30 02:33:21;;;;;;;10.48;6.20;;;;;;;14.96;100.00;100490.63;5091238;28;20035;-47
2023/08/30 02:35:46;;;;;;;7.50;5.65;;;;;;;15.48;100.00;100578.72;5091270;28;20064;-57
2023/08/30 02:38:11;;;;;;;6.10;5.43;;;;;;;15.33;100.00;100552.16;5089736;28;20036;-50
2023/08/30 02:40:37;;;;;;;7.57;5.60;;;;;;;15.09;100.00;100514.66;5095097;28;20455;-45
2023/08/30 02:43:02;;;;;;;8.60;6.20;;;;;;;15.45;100.00;100575.34;5095031;28;20091;-48
2023/08/30 02:45:28;;;;;;;8.60;6.57;;;;;;;15.42;100.00;100584.34;5094971;28;20054;-46
2023/08/30 02:47:56;;;;;;;6.82;5.95;;;;;;;15.25;100.00;100543.81;5093872;28;20084;-47
2023/08/30 02:50:22;;;;;;;7.90;6.60;;;;;;;14.91;100.00;100478.56;5093643;28;20036;-48
2023/08/30 02:52:48;;;;;;;8.60;6.47;;;;;;;15.31;100.00;100562.88;5093443;28;20043;-48
2023/08/30 02:55:13;;;;;;;11.40;7.18;;;;;;;15.18;100.00;100533.53;5094856;28;20063;-50
2023/08/30 02:57:38;;;;;;;9.35;6.32;;;;;;;15.18;100.00;100552.09;5095048;28;20040;-47
2023/08/30 03:00:05;;;;;;;7.50;6.68;;;;;;;15.10;100.00;100538.41;5094759;28;20488;-45
2023/08/30 03:02:33;;;;;;;8.20;6.65;;;;;;;14.86;100.00;100515.91;5094595;28;20039;-50
2023/08/30 03:04:59;;;;;;;8.68;6.45;;;;;;;14.35;100.00;100448.09;5076648;28;20035;-46
2023/08/30 03:07:24;;;;;;;8.68;7.45;;;;;;;14.75;100.00;100515.66;5093250;28;20027;-47
2023/08/30 03:09:53;;;;;;;9.35;7.15;;;;;;;14.35;100.00;100461.34;5094781;28;20482;-48
2023/08/30 03:12:18;;;;;;;10.45;7.65;;;;;;;14.68;100.00;100519.59;5094685;28;20103;-47
2023/08/30 03:14:43;;;;;;;9.35;7.50;;;;;;;14.14;100.00;100443.91;5094266;28;20475;-47
2023/08/30 03:17:09;;;;;;;8.90;7.60;;;;;;;14.42;100.00;100497.13;5094425;28;20123;-51
2023/08/30 03:19:34;;;;;;;8.63;7.72;;;;;;;14.07;100.00;100453.97;5094420;28;20032;-47
2023/08/30 03:22:00;;;;;;;9.70;7.40;;;;;;;14.12;100.00;100460.81;5094072;28;20463;-49
2023/08/30 03:24:25;;;;;;;9.73;7.63;;;;;;;14.23;100.00;100488.44;5094265;28;20476;-47
2023/08/30 03:26:51;;;;;;;9.18;8.27;;;;;;;13.86;100.00;100431.31;5094078;28;20048;-47
2023/08/30 03:29:16;;;;;;;9.82;8.35;;;;;;;14.24;100.00;100507.81;5094264;28;20072;-47
2023/08/30 03:31:43;;;;;;;10.45;8.68;;;;;;;13.76;100.00;100423.91;5092981;28;20056;-50
2023/08/30 03:34:08;;;;;;;10.63;8.55;;;;;;;14.12;100.00;100492.59;5094246;28;20545;-49
2023/08/30 03:36:34;;;;;;;13.23;8.48;;;;;;;14.13;100.00;100491.66;5094010;28;20125;-51
2023/08/30 03:38:59;;;;;;;10.98;8.48;;;;;;;14.06;100.00;100485.81;5076064;28;20127;-47
2023/08/30 03:41:24;;;;;;;10.40;9.25;;;;;;;14.01;100.00;100495.75;5092826;28;20391;-50
2023/08/30 03:43:50;;;;;;;12.40;9.88;;;;;;;13.45;100.00;100412.28;5092712;28;20039;-52
2023/08/30 03:46:15;;;;;;;10.50;9.40;;;;;;;13.88;100.00;100492.06;5093991;28;20032;-51
2023/08/30 03:48:40;;;;;;;11.63;9.35;;;;;;;13.38;100.00;100407.34;5093638;28;20032;-50
2023/08/30 03:51:06;;;;;;;11.75;9.57;;;;;;;13.78;100.00;100493.44;5074885;28;20024;-48
2023/08/30 03:53:31;;;;;;;11.88;10.23;;;;;;;13.36;100.00;100423.31;5094027;28;20479;-48
2023/08/30 03:55:56;;;;;;;13.50;9.77;;;;;;;13.32;100.00;100424.38;5094039;28;20115;-49
2023/08/30 03:58:22;;;;;;;11.75;9.85;;;;;;;13.45;100.00;100456.34;5093757;28;20524;-51
2023/08/30 04:00:47;;;;;;;12.45;9.35;;;;;;;13.57;100.00;100490.13;5093511;28;20067;-48
2023/08/30 04:03:14;;;;;;;12.50;9.65;;;;;;;13.08;100.00;100414.16;5092424;28;20165;-47
2023/08/30 04:05:39;;;;;;;12.05;9.77;;;;;;;13.17;100.00;100438.34;5093180;28;20483;-51
2023/08/30 04:08:05;;;;;;;14.57;9.85;;;;;;;13.41;100.00;100487.38;5093528;28;20054;-47
2023/08/30 04:10:38;;;;;;;10.55;9.45;;;;;;;12.84;100.00;100382.69;5093359;28;20059;-51
2023/08/30 04:13:04;;;;;;;13.30;9.50;;;;;;;12.95;100.00;100404.19;5093294;28;20086;-48
2023/08/30 04:15:35;;;;;;;10.70;9.43;;;;;;;13.34;100.00;100475.38;5093025;28;20050;-51
2023/08/30 04:18:02;;;;;;;11.30;9.40;;;;;;;13.36;100.00;100470.03;5091611;28;20113;-46
2023/08/30 04:20:27;;;;;;;11.73;8.77;;;;;;;13.30;100.00;100444.75;5091932;28;20036;-46
2023/08/30 04:22:55;;;;;;;13.30;10.23;;;;;;;13.11;100.00;100412.22;5091378;28;20024;-50
2023/08/30 04:25:21;;;;;;;11.95;9.23;;;;;;;13.47;100.00;100465.06;5091984;28;20047;-50
2023/08/30 04:27:46;;;;;;;10.57;9.40;;;;;;;13.45;100.00;100459.00;5092956;28;20036;-53
2023/08/30 04:30:12;;;;;;;12.32;10.63;;;;;;;13.40;100.00;100445.13;5091777;28;20085;-49
2023/08/30 04:32:37;;;;;;;10.45;9.10;;;;;;;13.03;100.00;100376.53;5092770;28;20747;-49
2023/08/30 04:35:03;;;;;;;13.43;9.90;;;;;;;13.44;100.00;100458.16;5093136;28;20028;-50
2023/08/30 04:37:31;;;;;;;12.18;9.52;;;;;;;13.42;100.00;100440.66;5092870;28;20040;-47
2023/08/30 04:39:57;;;;;;;10.52;9.35;;;;;;;13.48;100.00;100443.00;5092996;28;20036;-48
2023/08/30 04:42:22;;;;;;;12.65;8.68;;;;;;;13.46;100.00;100440.41;5092626;28;20051;-47
2023/08/30 04:44:47;;;;;;;12.85;10.18;;;;;;;13.56;100.00;100456.66;5091438;28;20506;-48
2023/08/30 04:47:12;;;;;;;12.88;9.80;;;;;;;13.60;100.00;100442.34;5092542;28;20024;-48
2023/08/30 04:49:38;;;;;;;11.13;9.80;;;;;;;13.16;100.00;100361.81;5092867;28;20043;-50
2023/08/30 04:52:04;;;;;;;13.57;9.90;;;;;;;13.67;100.00;100445.53;5091549;28;20040;-45
2023/08/30 04:54:30;;;;;;;15.10;9.93;;;;;;;13.68;100.00;100429.59;5092480;28;20044;-50
2023/08/30 04:56:55;;;;;;;11.68;9.90;;;;;;;13.73;100.00;100435.50;5091410;28;20040;-48
2023/08/30 04:59:21;;;;;;;14.43;10.30;;;;;;;13.36;100.00;100372.22;5092598;28;20036;-51
2023/08/30 05:01:47;;;;;;;11.77;10.13;;;;;;;13.49;100.00;100394.44;5092262;28;20039;-49
2023/08/30 05:04:12;;;;;;;12.45;10.88;;;;;;;13.85;100.00;100445.44;5091052;28;20027;-48
2023/08/30 05:06:37;;;;;;;12.63;10.80;;;;;;;13.52;100.00;100383.72;5092559;28;20040;-51
2023/08/30 05:09:03;;;;;;;11.50;9.63;;;;;;;13.58;100.00;100390.47;5092189;28;20036;-50
2023/08/30 05:11:28;;;;;;;11.70;10.35;;;;;;;14.01;100.00;100459.56;5092190;28;20036;-48
2023/08/30 05:13:57;;;;;;;12.00;10.77;;;;;;;13.87;100.00;100434.78;5091952;28;20067;-49
2023/08/30 05:16:22;;;;;;;14.77;10.90;;;;;;;14.04;100.00;100461.19;5091487;28;20115;-49
2023/08/30 05:18:47;;;;;;;13.90;11.20;;;;;;;13.58;100.00;100382.53;5092636;28;20039;-48
2023/08/30 05:21:14;;;;;;;18.05;11.50;;;;;;;13.97;100.00;100452.75;5090976;28;20036;-46
2023/08/30 05:23:41;;;;;;;15.05;12.15;;;;;;;13.50;100.00;100385.59;5091383;28;20067;-47
2023/08/30 05:26:08;;;;;;;15.00;12.20;;;;;;;13.87;100.00;100459.44;5092008;28;20036;-47
2023/08/30 05:28:34;;;;;;;16.70;13.43;;;;;;;13.49;100.00;100392.66;5090706;28;20537;-46
2023/08/30 05:30:59;;;;;;;18.05;14.23;;;;;;;13.41;100.00;100376.34;5092027;28;20044;-48
2023/08/30 05:33:24;;;;;;;16.15;14.40;;;;;;;13.76;100.00;100440.63;5092338;28;20085;-48
2023/08/30 05:35:50;;;;;;;21.92;14.77;;;;;;;13.73;100.00;100432.84;5092253;28;20040;-49
2023/08/30 05:38:15;;;;;;;23.83;15.18;;;;;;;13.31;100.00;100374.25;5092059;28;20054;-49
2023/08/30 05:40:44;;;;;;;21.98;16.17;;;;;;;13.19;100.00;100346.63;5092023;28;20082;-50
2023/08/30 05:43:10;;;;;;;21.60;16.58;;;;;;;13.62;100.00;100421.13;5092020;28;20436;-51
2023/08/30 05:45:35;;;;;;;23.10;16.98;;;;;;;13.62;100.00;100419.34;5090721;28;20024;-50
2023/08/30 05:48:00;;;;;;;23.17;17.42;;;;;;;13.60;100.00;100412.41;5091119;28;20711;-52
2023/08/30 05:50:26;;;;;;;22.13;17.35;;;;;;;13.54;100.00;100406.50;5090981;28;20028;-48
2023/08/30 05:52:51;;;;;;;25.10;18.52;;;;;;;13.49;100.00;100397.09;5091922;28;20036;-49
2023/08/30 05:55:16;;;;;;;26.52;19.42;;;;;;;13.61;100.00;100409.69;5090278;28;20036;-50
2023/08/30 05:57:42;;;;;;;27.20;19.00;;;;;;;13.17;100.00;100335.28;5092012;28;20111;-51
2023/08/30 06:00:08;;;;;;;25.77;18.02;;;;;;;13.20;100.00;100337.78;5092069;28;20047;-47
2023/08/30 06:02:34;;;;;;;26.98;20.77;;;;;;;13.50;100.00;100388.22;5091990;28;20036;-48
2023/08/30 06:04:59;;;;;;;28.63;19.92;;;;;;;13.20;100.00;100329.00;5092425;28;20497;-47
2023/08/30 06:07:24;;;;;;;23.20;18.88;;;;;;;13.56;100.00;100390.56;5091991;28;20442;-55
2023/08/30 06:09:50;;;;;;;24.67;19.30;;;;;;;13.24;100.00;100323.47;5091282;28;20431;-56
2023/08/30 06:12:15;;;;;;;27.98;20.50;;;;;;;13.61;100.00;100393.81;5091233;28;20337;-54
2023/08/30 06:14:40;;;;;;;28.63;19.73;;;;;;;13.50;100.00;100364.44;5093589;28;20028;-51
2023/08/30 06:17:06;;;;;;;26.27;19.70;;;;;;;13.57;100.00;100371.13;5095581;28;20028;-55
2023/08/30 06:19:31;;;;;;;29.63;20.23;;;;;;;13.44;100.00;100362.97;5094354;28;20032;-54
2023/08/30 06:21:56;;;;;;;27.75;20.02;;;;;;;13.17;100.00;100310.66;5096125;28;20032;-51
2023/08/30 06:24:22;;;;;;;30.20;20.98;;;;;;;12.96;100.00;100265.84;5095723;28;20479;-49
2023/08/30 06:26:47;;;;;;;28.48;21.42;;;;;;;13.18;100.00;100293.88;5094537;28;20040;-52
2023/08/30 06:29:12;;;;;;;29.77;19.08;;;;;;;13.28;100.00;100311.81;5095711;28;20113;-57
2023/08/30 06:31:39;;;;;;;28.17;19.70;;;;;;;13.14;100.00;100282.59;5095595;28;20034;-58
2023/08/30 06:34:05;;;;;;;25.67;19.05;;;;;;;13.56;100.00;100355.31;5095794;28;20090;-51
2023/08/30 06:36:30;;;;;;;30.45;19.80;;;;;;;13.60;100.00;100351.59;5095365;28;20036;-57
2023/08/30 06:38:55;;;;;;;26.88;19.42;;;;;;;13.63;100.00;100349.63;5094021;28;20509;-54
2023/08/30 06:41:21;;;;;;;25.00;19.33;;;;;;;13.77;100.00;100357.72;5077057;28;20177;-49
2023/08/30 06:43:46;;;;;;;24.77;18.23;;;;;;;13.86;100.00;100359.00;5094053;28;20043;-53
2023/08/30 06:46:11;;;;;;;23.33;17.70;;;;;;;13.59;100.00;100295.19;5095332;28;20398;-57
2023/08/30 06:48:37;;;;;;;20.25;16.45;;;;;;;13.94;100.00;100328.56;5095481;28;20036;-53
2023/08/30 06:51:03;;;;;;;22.13;16.92;;;;;;;14.01;100.00;100340.50;5095363;28;20124;-50
2023/08/30 06:53:28;;;;;;;22.05;16.85;;;;;;;13.94;100.00;100325.91;5094006;28;20042;-52
2023/08/30 06:55:58;;;;;;;22.05;16.08;;;;;;;13.69;100.00;100277.88;5093135;28;20036;-49
2023/08/30 06:58:23;;;;;;;22.05;16.65;;;;;;;14.05;100.00;100347.34;5093009;28;20118;-54
2023/08/30 07:00:48;;;;;;;19.20;16.45;;;;;;;13.74;100.00;100273.22;5093452;28;20502;-50
2023/08/30 07:03:14;;;;;;;20.60;15.60;;;;;;;14.06;100.00;100317.31;5092240;28;20040;-52
2023/08/30 07:05:39;;;;;;;17.98;15.93;;;;;;;13.88;100.00;100259.22;5074466;28;20085;-49
2023/08/30 07:08:05;;;;;;;17.02;14.45;;;;;;;13.99;100.00;100262.13;5092595;28;20036;-50
2023/08/30 07:10:30;;;;;;;16.75;14.52;;;;;;;14.42;100.00;100335.59;5092510;28;20036;-52
2023/08/30 07:12:55;;;;;;;17.63;14.30;;;;;;;14.44;100.00;100317.84;5092389;28;20028;-48
2023/08/30 07:15:21;;;;;;;14.18;12.48;;;;;;;14.51;100.00;100305.97;5092479;28;20036;-48
2023/08/30 07:17:46;;;;;;;22.38;13.88;;;;;;;14.18;100.00;100239.03;5092474;28;20388;-49
2023/08/30 07:20:11;;;;;;;14.32;12.85;;;;;;;14.49;100.00;100280.50;5091097;28;20453;-55
2023/08/30 07:22:37;;;;;;;16.02;12.65;;;;;;;14.62;100.00;100308.00;5091017;28;20036;-49
2023/08/30 07:25:03;;;;;;;15.05;12.75;;;;;;;14.71;100.00;100299.50;5091192;28;20048;-53
2023/08/30 07:27:28;;;;;;;14.40;12.68;;;;;;;14.65;100.00;100290.13;5091862;28;20064;-53
2023/08/30 07:29:54;;;;;;;13.20;11.90;;;;;;;14.79;100.00;100297.28;5090558;28;20075;-52
2023/08/30 07:32:19;;;;;;;13.20;11.93;;;;;;;14.44;100.00;100234.91;5092082;28;20035;-54
2023/08/30 07:34:44;;;;;;;12.23;11.07;;;;;;;14.79;100.00;100296.44;5091604;28;20036;-55
2023/08/30 07:37:18;;;;;;;13.60;11.63;;;;;;;14.65;100.00;100282.19;5084340;28;20090;-51
2023/08/30 07:39:43;;;;;;;12.40;11.20;;;;;;;14.81;100.00;100298.03;5071924;28;20032;-49
2023/08/30 07:42:09;;;;;;;13.80;12.40;;;;;;;14.72;100.00;100282.69;5082919;28;20180;-52
2023/08/30 07:44:34;;;;;;;10.60;9.60;;;;;;;14.45;100.00;100231.28;5090668;28;20905;-54
2023/08/30 07:46:59;;;;;;;11.32;10.23;;;;;;;14.44;100.00;100230.47;5075512;28;20461;-52
2023/08/30 07:49:25;;;;;;;11.13;9.88;;;;;;;14.78;100.00;100289.41;5091963;28;20032;-48
2023/08/30 07:51:50;;;;;;;11.25;10.15;;;;;;;14.35;100.00;100206.31;5091744;28;20036;-54
2023/08/30 07:54:15;;;;;;;11.13;10.02;;;;;;;14.83;100.00;100287.34;5090232;28;20504;-55
2023/08/30 07:56:41;;;;;;;12.05;9.40;;;;;;;14.77;100.00;100291.22;5091452;28;20028;-49
2023/08/30 07:59:06;;;;;;;10.93;9.80;;;;;;;14.46;100.00;100231.22;5091651;28;20032;-49
2023/08/30 08:01:31;;;;;;;9.23;8.32;;;;;;;14.70;100.00;100281.94;5086259;28;20111;-53
2023/08/30 08:03:57;;;;;;;10.13;9.20;;;;;;;14.61;100.00;100255.97;5071762;28;20401;-53
2023/08/30 08:06:22;;;;;;;10.00;8.90;;;;;;;14.89;100.00;100276.38;5091374;28;20028;-56
2023/08/30 08:08:47;;;;;;;9.35;8.30;;;;;;;15.13;100.00;100301.44;5088176;28;20137;-50
2023/08/30 08:11:13;;;;;;;10.23;9.23;;;;;;;15.17;100.00;100301.19;5070111;28;20029;-58
2023/08/30 08:13:38;;;;;;;10.48;9.48;;;;;;;14.79;100.00;100215.16;5083218;28;20445;-53
2023/08/30 08:16:03;;;;;;;10.68;9.60;;;;;;;15.21;100.00;100297.41;5071872;28;20033;-54
2023/08/30 08:18:29;;;;;;;11.57;10.50;;;;;;;14.96;100.00;100228.25;5071017;28;20051;-50
2023/08/30 08:20:54;;;;;;;11.52;10.43;;;;;;;15.14;100.00;100221.00;5071154;28;20033;-55
2023/08/30 08:23:19;;;;;;;11.25;10.15;;;;;;;15.56;100.00;100294.44;5071040;28;20403;-49
2023/08/30 08:25:45;;;;;;;12.40;11.30;;;;;;;15.10;100.00;100236.22;5075049;28;20415;-53
2023/08/30 08:28:10;;;;;;;11.95;10.93;;;;;;;15.36;100.00;100297.41;5073181;28;20119;-50
2023/08/30 08:30:36;;;;;;;12.95;11.73;;;;;;;15.38;100.00;100292.88;5091179;28;20504;-49
2023/08/30 08:33:01;;;;;;;14.93;13.55;;;;;;;15.09;100.00;100234.50;5090173;28;20404;-53
2023/08/30 08:35:26;;;;;;;14.25;12.95;;;;;;;15.44;100.00;100258.88;5079876;28;20406;-50
2023/08/30 08:37:52;;;;;;;12.50;11.50;;;;;;;15.69;100.00;100290.94;5070390;28;20036;-50
2023/08/30 08:40:17;;;;;;;10.35;9.52;;;;;;;16.27;100.00;100279.28;5069170;28;20139;-48
2023/08/30 08:42:43;;;;;;;6.25;5.65;;;;;;;17.13;100.00;100273.50;5070282;28;20055;-50
2023/08/30 08:45:10;;;;;;;7.60;6.07;;;;;;;17.14;100.00;100187.47;5087273;28;20060;-52
2023/08/30 08:47:35;;;;;;;5.95;5.15;;;;;;;18.35;100.00;100282.59;5091115;28;20344;-50
2023/08/30 08:50:03;;;;;;;4.15;3.80;;;;;;;19.29;100.00;100290.63;5089636;28;20032;-50
2023/08/30 08:52:29;;;;;;;3.25;2.50;;;;;;;19.63;100.00;100257.69;5090626;28;20040;-54
2023/08/30 08:54:54;;;;;;;2.92;2.33;;;;;;;20.25;100.00;100298.13;5075774;28;20089;-51
2023/08/30 08:57:20;;;;;;;5.90;2.30;;;;;;;20.57;100.00;100373.91;5070411;28;20086;-52
2023/08/30 08:59:46;;;;;;;2.97;2.00;;;;;;;20.78;100.00;100382.84;5086500;28;20513;-48
2023/08/30 09:02:13;;;;;;;4.55;1.92;;;;;;;20.89;100.00;100375.78;5087016;28;20039;-55
2023/08/30 09:04:39;;;;;;;3.35;2.05;;;;;;;20.96;100.00;100351.03;5084608;28;20394;-51
2023/08/30 09:07:04;;;;;;;6.18;2.17;;;;;;;21.60;100.00;100378.63;5090605;28;20040;-53
2023/08/30 09:09:30;;;;;;;5.43;1.95;;;;;;;21.67;100.00;100382.50;5075317;28;20131;-48
2023/08/30 09:11:56;;;;;;;4.43;2.10;;;;;;;20.90;100.00;100326.66;5070078;28;20373;-57
2023/08/30 09:14:21;;;;;;;3.75;2.08;;;;;;;20.55;100.00;100393.69;5070277;28;20086;-50
2023/08/30 09:17:00;;;;;;;5.50;2.80;;;;;;;19.16;100.00;100194.66;5090251;28;20035;-49
2023/08/30 09:19:26;;;;;;;4.20;2.10;;;;;;;20.97;100.00;100382.19;5090079;28;20454;-48
2023/08/30 09:21:55;;;;;;;4.45;2.30;;;;;;;21.27;100.00;100400.25;5090038;28;20064;-51
2023/08/30 09:24:21;;;;;;;4.90;2.08;;;;;;;20.99;100.00;100347.25;5089079;28;20052;-50
2023/08/30 09:26:51;;;;;;;5.38;2.00;;;;;;;21.39;100.00;100376.94;5089660;28;20052;-57
2023/08/30 09:29:17;;;;;;;5.85;2.17;;;;;;;21.37;100.00;100406.50;5080495;28;20041;-55
2023/08/30 09:31:43;;;;;;;6.82;2.05;;;;;;;20.69;100.00;100404.16;5068657;28;20480;-52
2023/08/30 09:34:10;;;;;;;7.63;2.65;;;;;;;20.24;100.00;100395.28;5069908;28;20046;-53
2023/08/30 09:36:42;;;;;;;6.35;2.20;;;;;;;19.74;100.00;100377.00;5069494;28;20017;-52
2023/08/30 09:39:09;;;;;;;8.50;2.92;;;;;;;19.96;100.00;100383.25;5076650;28;20024;-48
2023/08/30 09:41:34;;;;;;;6.90;2.22;;;;;;;20.01;100.00;100385.56;5090235;28;20032;-52
2023/08/30 09:44:06;;;;;;;5.70;1.92;;;;;;;19.40;100.00;100346.72;5090246;28;20039;-48
2023/08/30 09:46:31;;;;;;;4.07;2.17;;;;;;;19.24;100.00;100333.66;5090004;28;20475;-54
2023/08/30 09:48:57;;;;;;;7.72;2.10;;;;;;;19.44;100.00;100394.41;5088689;28;20035;-49
2023/08/30 09:51:23;;;;;;;5.63;2.13;;;;;;;19.36;100.00;100403.94;5094385;28;20035;-55
2023/08/30 09:53:49;;;;;;;4.88;2.08;;;;;;;19.59;100.00;100382.56;5092740;28;20039;-47
2023/08/30 09:56:15;;;;;;;7.90;2.17;;;;;;;19.76;100.00;100332.38;5092972;28;20407;-48
2023/08/30 09:58:41;;;;;;;5.55;2.28;;;;;;;19.67;100.00;100411.38;5086070;28;20131;-49
2023/08/30 10:01:07;;;;;;;9.20;2.70;;;;;;;18.75;100.00;100362.31;5092318;28;20131;-48
2023/08/30 10:03:34;;;;;;;6.78;2.40;;;;;;;18.29;100.00;100338.97;5094019;28;20496;-54
2023/08/30 10:06:00;;;;;;;4.53;2.25;;;;;;;18.52;100.00;100401.31;5092793;28;20032;-54
2023/08/30 10:08:30;;;;;;;9.02;2.83;;;;;;;18.31;100.00;100333.53;5093290;28;20067;-54
2023/08/30 10:10:58;;;;;;;7.70;2.57;;;;;;;18.31;100.00;100349.50;5092550;28;20058;-49
2023/08/30 10:13:24;;;;;;;5.20;2.60;;;;;;;19.67;100.00;100407.84;5092525;28;20289;-48
2023/08/30 10:15:53;;;;;;;9.27;2.53;;;;;;;20.88;100.00;100347.31;5092608;28;20054;-48
2023/08/30 10:18:20;;;;;;;8.60;2.92;;;;;;;22.14;100.00;100369.53;5091595;28;20036;-47
2023/08/30 10:20:46;;;;;;;6.15;2.05;;;;;;;22.36;100.00;100367.50;5086389;28;20468;-53
2023/08/30 10:23:12;;;;;;;4.78;2.33;;;;;;;22.06;100.00;100437.22;5084154;28;20028;-50
2023/08/30 10:25:39;;;;;;;11.95;2.67;;;;;;;21.21;100.00;100431.03;5082588;28;20457;-48
2023/08/30 10:28:04;;;;;;;8.95;2.35;;;;;;;20.37;100.00;100389.84;5092352;28;20035;-48
2023/08/30 10:30:30;;;;;;;5.00;2.38;;;;;;;19.77;100.00;100371.44;5075527;28;20112;-51
2023/08/30 10:32:55;;;;;;;7.25;2.78;;;;;;;19.73;100.00;100386.84;5057387;28;20384;-47
2023/08/30 10:35:20;;;;;;;8.70;2.83;;;;;;;20.29;100.00;100421.66;5079654;28;20106;-50
2023/08/30 10:37:56;;;;;;;11.90;3.72;;;;;;;21.16;100.00;100446.59;5071837;28;20043;-47
2023/08/30 10:40:22;;;;;;;6.68;3.03;;;;;;;22.12;100.00;100443.88;5072855;28;20032;-54
2023/08/30 10:42:58;;;;;;;8.82;2.58;;;;;;;22.35;100.00;100400.66;5073015;28;20036;-50
2023/08/30 10:45:24;;;;;;;6.63;2.35;;;;;;;22.43;100.00;100464.34;5073053;28;20564;-50
2023/08/30 10:47:54;;;;;;;7.70;2.03;;;;;;;21.37;100.00;100387.75;5072657;28;20152;-48
2023/08/30 10:50:30;;;;;;;6.55;2.72;;;;;;;21.06;100.00;100418.03;5071562;28;20056;-50
2023/08/30 10:52:56;;;;;;;6.53;2.28;;;;;;;21.40;100.00;100467.84;5071536;28;20115;-49
2023/08/30 10:55:22;;;;;;;5.88;2.17;;;;;;;20.83;100.00;100430.63;5075291;28;20127;-51
2023/08/30 10:57:58;;;;;;;6.30;1.70;;;;;;;21.16;100.00;100476.06;5072487;28;20338;-53
2023/08/30 11:00:24;;;;;;;4.47;2.10;;;;;;;20.61;100.00;100455.56;5070786;28;20036;-54
2023/08/30 11:02:50;;;;;;;6.30;1.83;;;;;;;20.95;100.00;100475.13;5071357;28;20376;-54
2023/08/30 11:05:16;;;;;;;3.67;1.90;;;;;;;20.83;100.00;100427.94;5073622;28;20479;-52
2023/08/30 11:07:43;;;;;;;5.68;2.20;;;;;;;21.92;100.00;100434.03;5072182;28;20082;-48